sensor_id;sensor_type;location;lat;lon;timestamp;P1;durP1;ratioP1;P2;durP2;ratioP2
16845;SDS011;8539;53.188;8.696;2023-08-07T00:02:00;5.30;;;2.95;;
16845;SDS011;8539;53.188;8.696;2023-08-07T00:04:28;4.80;;;3.22;;
16845;SDS011;8539;53.188;8.696;2023-08-07T00:06:54;5.78;;;3.33;;
16845;SDS011;8539;53.188;8.696;2023-08-07T00:09:20;4.80;;;3.20;;
16845;SDS011;8539;53.188;8.696;2023-08-07T00:11:48;5.55;;;3.33;;
16845;SDS011;8539;53.188;8.696;2023-08-07T00:14:15;8.57;;;4.00;;
16845;SDS011;8539;53.188;8.696;2023-08-07T00:16:42;7.65;;;3.88;;
16845;SDS011;8539;53.188;8.696;2023-08-07T00:19:08;6.97;;;4.07;;
16845;SDS011;8539;53.188;8.696;2023-08-07T00:21:35;7.30;;;4.22;;
16845;SDS011;8539;53.188;8.696;2023-08-07T00:24:02;5.80;;;3.92;;
16845;SDS011;8539;53.188;8.696;2023-08-07T00:26:28;7.97;;;4.85;;
16845;SDS011;8539;53.188;8.696;2023-08-07T00:28:55;6.78;;;5.68;;
16845;SDS011;8539;53.188;8.696;2023-08-07T00:31:22;6.10;;;5.18;;
16845;SDS011;8539;53.188;8.696;2023-08-07T00:33:47;8.00;;;4.95;;
16845;SDS011;8539;53.188;8.696;2023-08-07T00:36:17;7.00;;;5.10;;
16845;SDS011;8539;53.188;8.696;2023-08-07T00:38:43;15.95;;;6.07;;
16845;SDS011;8539;53.188;8.696;2023-08-07T00:41:09;15.85;;;5.30;;
16845;SDS011;8539;53.188;8.696;2023-08-07T00:43:36;7.57;;;5.65;;
16845;SDS011;8539;53.188;8.696;2023-08-07T00:46:02;10.45;;;5.63;;
16845;SDS011;8539;53.188;8.696;2023-08-07T00:48:29;12.18;;;6.70;;
16845;SDS011;8539;53.188;8.696;2023-08-07T00:50:57;6.95;;;5.95;;
16845;SDS011;8539;53.188;8.696;2023-08-07T00:53:23;10.27;;;5.13;;
16845;SDS011;8539;53.188;8.696;2023-08-07T00:55:49;8.40;;;5.57;;
16845;SDS011;8539;53.188;8.696;2023-08-07T00:58:16;8.60;;;6.05;;
16845;SDS011;8539;53.188;8.696;2023-08-07T01:00:43;6.80;;;5.32;;
16845;SDS011;8539;53.188;8.696;2023-08-07T01:03:09;6.70;;;5.40;;
16845;SDS011;8539;53.188;8.696;2023-08-07T01:05:39;31.55;;;7.20;;
16845;SDS011;8539;53.188;8.696;2023-08-07T01:08:08;9.63;;;5.22;;
16845;SDS011;8539;53.188;8.696;2023-08-07T01:10:40;7.45;;;5.15;;
16845;SDS011;8539;53.188;8.696;2023-08-07T01:13:31;10.65;;;5.38;;
16845;SDS011;8539;53.188;8.696;2023-08-07T01:16:28;46.95;;;9.98;;
16845;SDS011;8539;53.188;8.696;2023-08-07T01:19:02;8.75;;;6.32;;
16845;SDS011;8539;53.188;8.696;2023-08-07T01:21:31;7.05;;;5.40;;
16845;SDS011;8539;53.188;8.696;2023-08-07T01:23:58;10.82;;;5.47;;
16845;SDS011;8539;53.188;8.696;2023-08-07T01:26:24;8.48;;;6.47;;
16845;SDS011;8539;53.188;8.696;2023-08-07T01:29:34;7.03;;;5.00;;
16845;SDS011;8539;53.188;8.696;2023-08-07T01:31:48;8.50;;;5.28;;
16845;SDS011;8539;53.188;8.696;2023-08-07T01:34:17;13.45;;;5.68;;
16845;SDS011;8539;53.188;8.696;2023-08-07T01:36:46;7.93;;;5.00;;
16845;SDS011;8539;53.188;8.696;2023-08-07T01:39:14;11.63;;;5.22;;
16845;SDS011;8539;53.188;8.696;2023-08-07T01:41:41;101.65;;;10.60;;
16845;SDS011;8539;53.188;8.696;2023-08-07T01:44:08;11.93;;;5.95;;
16845;SDS011;8539;53.188;8.696;2023-08-07T01:46:36;6.53;;;5.35;;
16845;SDS011;8539;53.188;8.696;2023-08-07T01:49:02;8.63;;;5.90;;
16845;SDS011;8539;53.188;8.696;2023-08-07T01:51:28;9.02;;;5.57;;
16845;SDS011;8539;53.188;8.696;2023-08-07T01:53:54;8.40;;;5.45;;
16845;SDS011;8539;53.188;8.696;2023-08-07T01:56:20;9.30;;;5.43;;
16845;SDS011;8539;53.188;8.696;2023-08-07T01:58:46;7.63;;;5.18;;
16845;SDS011;8539;53.188;8.696;2023-08-07T02:01:12;9.25;;;5.47;;
16845;SDS011;8539;53.188;8.696;2023-08-07T02:03:38;14.45;;;5.43;;
16845;SDS011;8539;53.188;8.696;2023-08-07T02:06:04;11.93;;;6.05;;
16845;SDS011;8539;53.188;8.696;2023-08-07T02:08:30;7.03;;;5.90;;
16845;SDS011;8539;53.188;8.696;2023-08-07T02:10:56;14.38;;;6.15;;
16845;SDS011;8539;53.188;8.696;2023-08-07T02:13:22;9.55;;;5.55;;
16845;SDS011;8539;53.188;8.696;2023-08-07T02:15:48;43.22;;;7.90;;
16845;SDS011;8539;53.188;8.696;2023-08-07T02:18:14;11.60;;;5.95;;
16845;SDS011;8539;53.188;8.696;2023-08-07T02:20:40;7.30;;;5.60;;
16845;SDS011;8539;53.188;8.696;2023-08-07T02:23:06;8.13;;;5.28;;
16845;SDS011;8539;53.188;8.696;2023-08-07T02:25:32;13.20;;;6.45;;
16845;SDS011;8539;53.188;8.696;2023-08-07T02:27:58;8.50;;;4.45;;
16845;SDS011;8539;53.188;8.696;2023-08-07T02:30:24;10.30;;;5.15;;
16845;SDS011;8539;53.188;8.696;2023-08-07T02:32:50;10.98;;;5.32;;
16845;SDS011;8539;53.188;8.696;2023-08-07T02:35:16;9.75;;;5.65;;
16845;SDS011;8539;53.188;8.696;2023-08-07T02:37:42;9.85;;;5.45;;
16845;SDS011;8539;53.188;8.696;2023-08-07T02:40:08;41.90;;;7.80;;
16845;SDS011;8539;53.188;8.696;2023-08-07T02:42:36;8.20;;;4.82;;
16845;SDS011;8539;53.188;8.696;2023-08-07T02:45:02;11.05;;;6.32;;
16845;SDS011;8539;53.188;8.696;2023-08-07T02:47:32;8.68;;;5.60;;
16845;SDS011;8539;53.188;8.696;2023-08-07T02:49:58;9.40;;;6.00;;
16845;SDS011;8539;53.188;8.696;2023-08-07T02:52:25;11.82;;;5.22;;
16845;SDS011;8539;53.188;8.696;2023-08-07T02:54:50;5.60;;;5.00;;
16845;SDS011;8539;53.188;8.696;2023-08-07T02:57:17;63.80;;;11.05;;
16845;SDS011;8539;53.188;8.696;2023-08-07T02:59:43;10.32;;;5.57;;
16845;SDS011;8539;53.188;8.696;2023-08-07T03:02:09;9.60;;;6.22;;
16845;SDS011;8539;53.188;8.696;2023-08-07T03:04:35;12.32;;;5.70;;
16845;SDS011;8539;53.188;8.696;2023-08-07T03:07:01;6.95;;;5.20;;
16845;SDS011;8539;53.188;8.696;2023-08-07T03:09:27;7.35;;;5.32;;
16845;SDS011;8539;53.188;8.696;2023-08-07T03:11:53;12.10;;;5.30;;
16845;SDS011;8539;53.188;8.696;2023-08-07T03:14:20;7.75;;;5.38;;
16845;SDS011;8539;53.188;8.696;2023-08-07T03:16:46;6.53;;;5.32;;
16845;SDS011;8539;53.188;8.696;2023-08-07T03:19:12;7.38;;;5.30;;
16845;SDS011;8539;53.188;8.696;2023-08-07T03:21:38;6.80;;;5.65;;
16845;SDS011;8539;53.188;8.696;2023-08-07T03:24:04;7.90;;;4.60;;
16845;SDS011;8539;53.188;8.696;2023-08-07T03:26:30;13.68;;;6.03;;
16845;SDS011;8539;53.188;8.696;2023-08-07T03:28:56;13.85;;;5.55;;
16845;SDS011;8539;53.188;8.696;2023-08-07T03:31:22;10.02;;;5.60;;
16845;SDS011;8539;53.188;8.696;2023-08-07T03:33:48;9.90;;;6.15;;
16845;SDS011;8539;53.188;8.696;2023-08-07T03:36:14;13.18;;;4.95;;
16845;SDS011;8539;53.188;8.696;2023-08-07T03:38:41;4.75;;;4.03;;
16845;SDS011;8539;53.188;8.696;2023-08-07T03:41:07;7.75;;;3.72;;
16845;SDS011;8539;53.188;8.696;2023-08-07T03:43:33;10.48;;;4.45;;
16845;SDS011;8539;53.188;8.696;2023-08-07T03:45:59;4.40;;;3.67;;
16845;SDS011;8539;53.188;8.696;2023-08-07T03:48:25;3.60;;;3.08;;
16845;SDS011;8539;53.188;8.696;2023-08-07T03:50:52;7.10;;;3.17;;
16845;SDS011;8539;53.188;8.696;2023-08-07T03:53:18;6.13;;;3.63;;
16845;SDS011;8539;53.188;8.696;2023-08-07T03:55:49;8.48;;;3.20;;
16845;SDS011;8539;53.188;8.696;2023-08-07T03:58:19;4.38;;;2.47;;
16845;SDS011;8539;53.188;8.696;2023-08-07T04:00:45;4.22;;;2.60;;
16845;SDS011;8539;53.188;8.696;2023-08-07T04:03:11;38.83;;;4.55;;
16845;SDS011;8539;53.188;8.696;2023-08-07T04:05:37;5.38;;;2.30;;
16845;SDS011;8539;53.188;8.696;2023-08-07T04:08:04;6.80;;;2.90;;
16845;SDS011;8539;53.188;8.696;2023-08-07T04:10:30;3.90;;;2.85;;
16845;SDS011;8539;53.188;8.696;2023-08-07T04:12:56;6.00;;;2.53;;
16845;SDS011;8539;53.188;8.696;2023-08-07T04:15:22;2.83;;;2.55;;
16845;SDS011;8539;53.188;8.696;2023-08-07T04:17:48;3.03;;;2.17;;
16845;SDS011;8539;53.188;8.696;2023-08-07T04:20:14;4.40;;;2.72;;
16845;SDS011;8539;53.188;8.696;2023-08-07T04:22:40;2.88;;;2.47;;
16845;SDS011;8539;53.188;8.696;2023-08-07T04:25:06;3.00;;;2.63;;
16845;SDS011;8539;53.188;8.696;2023-08-07T04:27:32;4.93;;;2.35;;
16845;SDS011;8539;53.188;8.696;2023-08-07T04:29:58;4.45;;;2.03;;
16845;SDS011;8539;53.188;8.696;2023-08-07T04:32:25;4.03;;;2.67;;
16845;SDS011;8539;53.188;8.696;2023-08-07T04:34:51;4.40;;;2.22;;
16845;SDS011;8539;53.188;8.696;2023-08-07T04:37:17;4.63;;;2.83;;
16845;SDS011;8539;53.188;8.696;2023-08-07T04:39:43;4.07;;;2.47;;
16845;SDS011;8539;53.188;8.696;2023-08-07T04:42:09;2.47;;;2.28;;
16845;SDS011;8539;53.188;8.696;2023-08-07T04:44:35;6.80;;;2.53;;
16845;SDS011;8539;53.188;8.696;2023-08-07T04:47:01;4.97;;;1.85;;
16845;SDS011;8539;53.188;8.696;2023-08-07T04:49:27;5.72;;;1.80;;
16845;SDS011;8539;53.188;8.696;2023-08-07T04:51:53;4.03;;;2.78;;
16845;SDS011;8539;53.188;8.696;2023-08-07T04:54:19;3.50;;;2.03;;
16845;SDS011;8539;53.188;8.696;2023-08-07T04:56:45;8.00;;;2.65;;
16845;SDS011;8539;53.188;8.696;2023-08-07T04:59:11;4.97;;;2.00;;
16845;SDS011;8539;53.188;8.696;2023-08-07T05:01:38;3.85;;;1.88;;
16845;SDS011;8539;53.188;8.696;2023-08-07T05:04:04;4.22;;;1.92;;
16845;SDS011;8539;53.188;8.696;2023-08-07T05:06:30;2.50;;;1.92;;
16845;SDS011;8539;53.188;8.696;2023-08-07T05:08:57;6.35;;;2.05;;
16845;SDS011;8539;53.188;8.696;2023-08-07T05:11:23;5.47;;;1.75;;
16845;SDS011;8539;53.188;8.696;2023-08-07T05:13:49;2.95;;;1.58;;
16845;SDS011;8539;53.188;8.696;2023-08-07T05:16:15;4.45;;;2.00;;
16845;SDS011;8539;53.188;8.696;2023-08-07T05:18:44;4.55;;;1.60;;
16845;SDS011;8539;53.188;8.696;2023-08-07T05:21:10;3.35;;;1.90;;
16845;SDS011;8539;53.188;8.696;2023-08-07T05:23:36;4.63;;;1.73;;
16845;SDS011;8539;53.188;8.696;2023-08-07T05:26:02;4.10;;;1.92;;
16845;SDS011;8539;53.188;8.696;2023-08-07T05:28:28;4.93;;;1.92;;
16845;SDS011;8539;53.188;8.696;2023-08-07T05:30:55;6.50;;;2.10;;
16845;SDS011;8539;53.188;8.696;2023-08-07T05:33:21;6.95;;;1.90;;
16845;SDS011;8539;53.188;8.696;2023-08-07T05:35:47;9.45;;;2.67;;
16845;SDS011;8539;53.188;8.696;2023-08-07T05:38:13;2.28;;;1.98;;
16845;SDS011;8539;53.188;8.696;2023-08-07T05:40:39;3.50;;;2.40;;
16845;SDS011;8539;53.188;8.696;2023-08-07T05:43:06;4.45;;;2.83;;
16845;SDS011;8539;53.188;8.696;2023-08-07T05:45:32;5.32;;;2.75;;
16845;SDS011;8539;53.188;8.696;2023-08-07T05:47:58;4.30;;;2.60;;
16845;SDS011;8539;53.188;8.696;2023-08-07T05:50:24;7.43;;;2.20;;
16845;SDS011;8539;53.188;8.696;2023-08-07T05:52:50;6.53;;;2.28;;
16845;SDS011;8539;53.188;8.696;2023-08-07T05:55:17;3.70;;;2.78;;
16845;SDS011;8539;53.188;8.696;2023-08-07T05:57:43;5.95;;;2.50;;
16845;SDS011;8539;53.188;8.696;2023-08-07T06:00:10;11.13;;;2.88;;
16845;SDS011;8539;53.188;8.696;2023-08-07T06:02:42;4.70;;;2.42;;
16845;SDS011;8539;53.188;8.696;2023-08-07T06:05:08;9.55;;;2.10;;
16845;SDS011;8539;53.188;8.696;2023-08-07T06:07:38;7.07;;;2.97;;
16845;SDS011;8539;53.188;8.696;2023-08-07T06:10:04;5.00;;;2.50;;
16845;SDS011;8539;53.188;8.696;2023-08-07T06:12:31;4.80;;;2.58;;
16845;SDS011;8539;53.188;8.696;2023-08-07T06:14:57;9.38;;;2.55;;
16845;SDS011;8539;53.188;8.696;2023-08-07T06:17:23;4.28;;;2.38;;
16845;SDS011;8539;53.188;8.696;2023-08-07T06:19:49;7.05;;;2.42;;
16845;SDS011;8539;53.188;8.696;2023-08-07T06:22:15;12.23;;;2.67;;
16845;SDS011;8539;53.188;8.696;2023-08-07T06:24:42;7.88;;;2.50;;
16845;SDS011;8539;53.188;8.696;2023-08-07T06:27:08;8.60;;;3.28;;
16845;SDS011;8539;53.188;8.696;2023-08-07T06:29:34;9.07;;;2.38;;
16845;SDS011;8539;53.188;8.696;2023-08-07T06:32:00;5.22;;;2.42;;
16845;SDS011;8539;53.188;8.696;2023-08-07T06:34:26;5.05;;;2.33;;
16845;SDS011;8539;53.188;8.696;2023-08-07T06:36:52;5.40;;;2.47;;
16845;SDS011;8539;53.188;8.696;2023-08-07T06:39:18;5.07;;;3.40;;
16845;SDS011;8539;53.188;8.696;2023-08-07T06:41:44;7.72;;;2.20;;
16845;SDS011;8539;53.188;8.696;2023-08-07T06:44:10;7.80;;;2.30;;
16845;SDS011;8539;53.188;8.696;2023-08-07T06:46:36;10.00;;;3.10;;
16845;SDS011;8539;53.188;8.696;2023-08-07T06:49:02;7.93;;;2.90;;
16845;SDS011;8539;53.188;8.696;2023-08-07T06:51:28;6.00;;;2.75;;
16845;SDS011;8539;53.188;8.696;2023-08-07T06:53:54;9.52;;;3.83;;
16845;SDS011;8539;53.188;8.696;2023-08-07T06:56:20;12.73;;;3.33;;
16845;SDS011;8539;53.188;8.696;2023-08-07T06:58:46;11.85;;;2.95;;
16845;SDS011;8539;53.188;8.696;2023-08-07T07:01:13;9.75;;;3.40;;
16845;SDS011;8539;53.188;8.696;2023-08-07T07:03:39;8.68;;;2.70;;
16845;SDS011;8539;53.188;8.696;2023-08-07T07:06:06;8.68;;;3.28;;
16845;SDS011;8539;53.188;8.696;2023-08-07T07:08:32;8.85;;;3.65;;
16845;SDS011;8539;53.188;8.696;2023-08-07T07:10:58;12.80;;;3.92;;
16845;SDS011;8539;53.188;8.696;2023-08-07T07:13:25;12.30;;;4.03;;
16845;SDS011;8539;53.188;8.696;2023-08-07T07:15:54;17.45;;;3.88;;
16845;SDS011;8539;53.188;8.696;2023-08-07T07:18:21;18.08;;;3.47;;
16845;SDS011;8539;53.188;8.696;2023-08-07T07:20:47;12.50;;;4.43;;
16845;SDS011;8539;53.188;8.696;2023-08-07T07:23:13;11.55;;;3.80;;
16845;SDS011;8539;53.188;8.696;2023-08-07T07:25:39;15.40;;;4.10;;
16845;SDS011;8539;53.188;8.696;2023-08-07T07:28:05;10.77;;;3.53;;
16845;SDS011;8539;53.188;8.696;2023-08-07T07:30:31;13.75;;;3.78;;
16845;SDS011;8539;53.188;8.696;2023-08-07T07:32:57;11.30;;;3.28;;
16845;SDS011;8539;53.188;8.696;2023-08-07T07:35:26;13.32;;;3.80;;
16845;SDS011;8539;53.188;8.696;2023-08-07T07:37:53;12.55;;;3.80;;
16845;SDS011;8539;53.188;8.696;2023-08-07T07:40:19;13.00;;;3.85;;
16845;SDS011;8539;53.188;8.696;2023-08-07T07:42:45;18.95;;;5.70;;
16845;SDS011;8539;53.188;8.696;2023-08-07T07:45:11;13.45;;;3.83;;
16845;SDS011;8539;53.188;8.696;2023-08-07T07:47:37;6.60;;;3.50;;
16845;SDS011;8539;53.188;8.696;2023-08-07T07:50:06;16.05;;;3.78;;
16845;SDS011;8539;53.188;8.696;2023-08-07T07:52:34;11.02;;;3.92;;
16845;SDS011;8539;53.188;8.696;2023-08-07T07:55:00;14.90;;;5.18;;
16845;SDS011;8539;53.188;8.696;2023-08-07T07:57:26;16.50;;;3.78;;
16845;SDS011;8539;53.188;8.696;2023-08-07T07:59:52;14.63;;;4.20;;
16845;SDS011;8539;53.188;8.696;2023-08-07T08:02:20;17.08;;;4.22;;
16845;SDS011;8539;53.188;8.696;2023-08-07T08:04:47;20.42;;;4.70;;
16845;SDS011;8539;53.188;8.696;2023-08-07T08:07:14;16.70;;;3.80;;
16845;SDS011;8539;53.188;8.696;2023-08-07T08:09:40;17.20;;;4.82;;
16845;SDS011;8539;53.188;8.696;2023-08-07T08:12:07;11.18;;;3.60;;
16845;SDS011;8539;53.188;8.696;2023-08-07T08:14:34;12.13;;;3.63;;
16845;SDS011;8539;53.188;8.696;2023-08-07T08:17:00;13.40;;;3.40;;
16845;SDS011;8539;53.188;8.696;2023-08-07T08:19:26;12.10;;;3.45;;
16845;SDS011;8539;53.188;8.696;2023-08-07T08:21:52;15.60;;;4.30;;
16845;SDS011;8539;53.188;8.696;2023-08-07T08:24:18;12.93;;;3.78;;
16845;SDS011;8539;53.188;8.696;2023-08-07T08:26:44;9.35;;;3.92;;
16845;SDS011;8539;53.188;8.696;2023-08-07T08:29:13;10.55;;;3.00;;
16845;SDS011;8539;53.188;8.696;2023-08-07T08:31:40;13.32;;;3.15;;
16845;SDS011;8539;53.188;8.696;2023-08-07T08:34:06;14.00;;;2.50;;
16845;SDS011;8539;53.188;8.696;2023-08-07T08:36:41;12.57;;;2.35;;
16845;SDS011;8539;53.188;8.696;2023-08-07T08:39:07;6.55;;;2.25;;
16845;SDS011;8539;53.188;8.696;2023-08-07T08:41:34;7.82;;;2.90;;
16845;SDS011;8539;53.188;8.696;2023-08-07T08:44:00;12.88;;;2.65;;
16845;SDS011;8539;53.188;8.696;2023-08-07T08:46:42;9.35;;;2.17;;
16845;SDS011;8539;53.188;8.696;2023-08-07T08:49:30;9.18;;;2.60;;
16845;SDS011;8539;53.188;8.696;2023-08-07T08:52:35;11.02;;;2.90;;
16845;SDS011;8539;53.188;8.696;2023-08-07T08:55:03;10.57;;;3.30;;
16845;SDS011;8539;53.188;8.696;2023-08-07T08:57:29;15.45;;;3.92;;
16845;SDS011;8539;53.188;8.696;2023-08-07T08:59:56;15.45;;;2.90;;
16845;SDS011;8539;53.188;8.696;2023-08-07T09:02:23;11.20;;;4.35;;
16845;SDS011;8539;53.188;8.696;2023-08-07T09:08:01;14.40;;;4.20;;
16845;SDS011;8539;53.188;8.696;2023-08-07T09:10:28;11.23;;;2.97;;
16845;SDS011;8539;53.188;8.696;2023-08-07T09:13:02;8.23;;;3.30;;
16845;SDS011;8539;53.188;8.696;2023-08-07T09:15:33;12.32;;;3.58;;
16845;SDS011;8539;53.188;8.696;2023-08-07T09:18:07;10.07;;;3.30;;
16845;SDS011;8539;53.188;8.696;2023-08-07T09:20:43;17.40;;;5.22;;
16845;SDS011;8539;53.188;8.696;2023-08-07T09:23:10;11.52;;;3.40;;
16845;SDS011;8539;53.188;8.696;2023-08-07T09:25:37;12.00;;;3.90;;
16845;SDS011;8539;53.188;8.696;2023-08-07T09:28:04;16.50;;;3.80;;
16845;SDS011;8539;53.188;8.696;2023-08-07T09:30:32;14.75;;;4.65;;
16845;SDS011;8539;53.188;8.696;2023-08-07T09:33:00;15.77;;;5.60;;
16845;SDS011;8539;53.188;8.696;2023-08-07T09:35:27;14.98;;;3.67;;
16845;SDS011;8539;53.188;8.696;2023-08-07T09:38:13;9.77;;;3.42;;
16845;SDS011;8539;53.188;8.696;2023-08-07T09:40:45;6.85;;;3.05;;
16845;SDS011;8539;53.188;8.696;2023-08-07T09:43:11;11.43;;;3.60;;
16845;SDS011;8539;53.188;8.696;2023-08-07T09:45:47;9.90;;;2.65;;
16845;SDS011;8539;53.188;8.696;2023-08-07T09:48:24;8.52;;;2.83;;
16845;SDS011;8539;53.188;8.696;2023-08-07T09:50:50;7.25;;;2.40;;
16845;SDS011;8539;53.188;8.696;2023-08-07T09:53:26;8.10;;;2.35;;
16845;SDS011;8539;53.188;8.696;2023-08-07T09:55:56;10.33;;;3.23;;
16845;SDS011;8539;53.188;8.696;2023-08-07T09:58:26;10.77;;;3.03;;
16845;SDS011;8539;53.188;8.696;2023-08-07T10:00:53;8.05;;;2.45;;
16845;SDS011;8539;53.188;8.696;2023-08-07T10:03:21;6.75;;;2.42;;
16845;SDS011;8539;53.188;8.696;2023-08-07T10:05:48;9.77;;;2.75;;
16845;SDS011;8539;53.188;8.696;2023-08-07T10:08:30;7.13;;;2.53;;
16845;SDS011;8539;53.188;8.696;2023-08-07T10:10:59;6.68;;;3.08;;
16845;SDS011;8539;53.188;8.696;2023-08-07T10:13:28;12.38;;;3.10;;
16845;SDS011;8539;53.188;8.696;2023-08-07T10:15:55;9.70;;;2.85;;
16845;SDS011;8539;53.188;8.696;2023-08-07T10:18:29;8.93;;;2.92;;
16845;SDS011;8539;53.188;8.696;2023-08-07T10:21:01;8.25;;;2.88;;
16845;SDS011;8539;53.188;8.696;2023-08-07T10:23:29;5.13;;;1.85;;
16845;SDS011;8539;53.188;8.696;2023-08-07T10:25:56;10.68;;;2.72;;
16845;SDS011;8539;53.188;8.696;2023-08-07T10:28:25;7.57;;;2.20;;
16845;SDS011;8539;53.188;8.696;2023-08-07T10:31:04;9.02;;;2.85;;
16845;SDS011;8539;53.188;8.696;2023-08-07T10:33:32;6.53;;;2.72;;
16845;SDS011;8539;53.188;8.696;2023-08-07T10:35:58;10.13;;;2.85;;
16845;SDS011;8539;53.188;8.696;2023-08-07T10:38:25;7.45;;;2.20;;
16845;SDS011;8539;53.188;8.696;2023-08-07T10:43:27;3.88;;;2.67;;
16845;SDS011;8539;53.188;8.696;2023-08-07T10:46:00;8.65;;;2.42;;
16845;SDS011;8539;53.188;8.696;2023-08-07T10:48:29;6.45;;;2.20;;
16845;SDS011;8539;53.188;8.696;2023-08-07T10:51:03;7.15;;;2.30;;
16845;SDS011;8539;53.188;8.696;2023-08-07T10:56:01;7.45;;;2.78;;
16845;SDS011;8539;53.188;8.696;2023-08-07T10:58:29;8.85;;;2.83;;
16845;SDS011;8539;53.188;8.696;2023-08-07T11:03:57;5.30;;;2.50;;
16845;SDS011;8539;53.188;8.696;2023-08-07T11:06:32;11.50;;;2.78;;
16845;SDS011;8539;53.188;8.696;2023-08-07T11:09:00;9.05;;;2.83;;
16845;SDS011;8539;53.188;8.696;2023-08-07T11:11:38;9.63;;;2.97;;
16845;SDS011;8539;53.188;8.696;2023-08-07T11:14:15;10.18;;;2.75;;
16845;SDS011;8539;53.188;8.696;2023-08-07T11:16:45;7.60;;;2.70;;
16845;SDS011;8539;53.188;8.696;2023-08-07T11:19:13;11.07;;;2.80;;
16845;SDS011;8539;53.188;8.696;2023-08-07T11:21:47;8.20;;;2.28;;
16845;SDS011;8539;53.188;8.696;2023-08-07T11:24:15;9.35;;;2.67;;
16845;SDS011;8539;53.188;8.696;2023-08-07T11:26:44;9.20;;;2.90;;
16845;SDS011;8539;53.188;8.696;2023-08-07T11:29:20;10.82;;;2.70;;
16845;SDS011;8539;53.188;8.696;2023-08-07T11:31:52;9.15;;;2.50;;
16845;SDS011;8539;53.188;8.696;2023-08-07T11:34:31;6.82;;;2.75;;
16845;SDS011;8539;53.188;8.696;2023-08-07T11:37:02;9.82;;;2.30;;
16845;SDS011;8539;53.188;8.696;2023-08-07T11:39:29;10.35;;;3.08;;
16845;SDS011;8539;53.188;8.696;2023-08-07T11:41:59;11.02;;;2.72;;
16845;SDS011;8539;53.188;8.696;2023-08-07T11:44:33;8.65;;;2.58;;
16845;SDS011;8539;53.188;8.696;2023-08-07T11:46:59;6.90;;;2.45;;
16845;SDS011;8539;53.188;8.696;2023-08-07T11:49:25;9.68;;;2.72;;
16845;SDS011;8539;53.188;8.696;2023-08-07T11:51:51;5.72;;;1.98;;
16845;SDS011;8539;53.188;8.696;2023-08-07T11:54:18;10.07;;;2.10;;
16845;SDS011;8539;53.188;8.696;2023-08-07T11:56:45;5.75;;;2.22;;
16845;SDS011;8539;53.188;8.696;2023-08-07T11:59:11;5.78;;;2.38;;
16845;SDS011;8539;53.188;8.696;2023-08-07T12:01:38;4.05;;;1.88;;
16845;SDS011;8539;53.188;8.696;2023-08-07T12:04:10;12.45;;;2.20;;
16845;SDS011;8539;53.188;8.696;2023-08-07T12:06:37;10.25;;;2.58;;
16845;SDS011;8539;53.188;8.696;2023-08-07T12:09:08;11.60;;;2.88;;
16845;SDS011;8539;53.188;8.696;2023-08-07T12:11:38;9.27;;;2.72;;
16845;SDS011;8539;53.188;8.696;2023-08-07T12:14:04;5.95;;;2.25;;
16845;SDS011;8539;53.188;8.696;2023-08-07T12:16:36;7.32;;;2.10;;
16845;SDS011;8539;53.188;8.696;2023-08-07T12:19:03;5.93;;;2.58;;
16845;SDS011;8539;53.188;8.696;2023-08-07T12:21:35;10.05;;;2.70;;
16845;SDS011;8539;53.188;8.696;2023-08-07T12:24:07;9.65;;;3.30;;
16845;SDS011;8539;53.188;8.696;2023-08-07T12:26:36;8.07;;;2.05;;
16845;SDS011;8539;53.188;8.696;2023-08-07T12:29:02;8.32;;;2.50;;
16845;SDS011;8539;53.188;8.696;2023-08-07T12:31:29;8.13;;;2.47;;
16845;SDS011;8539;53.188;8.696;2023-08-07T12:33:55;11.25;;;2.97;;
16845;SDS011;8539;53.188;8.696;2023-08-07T12:36:21;16.08;;;3.03;;
16845;SDS011;8539;53.188;8.696;2023-08-07T12:38:55;9.65;;;2.47;;
16845;SDS011;8539;53.188;8.696;2023-08-07T12:41:24;7.82;;;2.15;;
16845;SDS011;8539;53.188;8.696;2023-08-07T12:43:50;3.38;;;1.63;;
16845;SDS011;8539;53.188;8.696;2023-08-07T12:46:17;6.07;;;1.98;;
16845;SDS011;8539;53.188;8.696;2023-08-07T12:48:43;7.53;;;2.10;;
16845;SDS011;8539;53.188;8.696;2023-08-07T12:51:09;6.75;;;2.03;;
16845;SDS011;8539;53.188;8.696;2023-08-07T12:53:35;6.07;;;2.35;;
16845;SDS011;8539;53.188;8.696;2023-08-07T12:56:04;8.95;;;2.40;;
16845;SDS011;8539;53.188;8.696;2023-08-07T12:58:34;11.93;;;2.78;;
16845;SDS011;8539;53.188;8.696;2023-08-07T13:01:06;9.73;;;2.92;;
16845;SDS011;8539;53.188;8.696;2023-08-07T13:03:56;20.35;;;4.05;;
16845;SDS011;8539;53.188;8.696;2023-08-07T13:11:33;16.67;;;4.65;;
16845;SDS011;8539;53.188;8.696;2023-08-07T13:13:59;12.02;;;3.55;;
16845;SDS011;8539;53.188;8.696;2023-08-07T13:16:25;8.07;;;2.70;;
16845;SDS011;8539;53.188;8.696;2023-08-07T13:18:52;6.70;;;3.20;;
16845;SDS011;8539;53.188;8.696;2023-08-07T13:21:18;13.52;;;4.55;;
16845;SDS011;8539;53.188;8.696;2023-08-07T13:23:44;15.38;;;3.40;;
16845;SDS011;8539;53.188;8.696;2023-08-07T13:26:10;14.85;;;3.83;;
16845;SDS011;8539;53.188;8.696;2023-08-07T13:28:37;12.77;;;3.75;;
16845;SDS011;8539;53.188;8.696;2023-08-07T13:31:03;9.70;;;4.28;;
16845;SDS011;8539;53.188;8.696;2023-08-07T13:33:29;11.18;;;3.00;;
16845;SDS011;8539;53.188;8.696;2023-08-07T13:35:55;9.50;;;3.33;;
16845;SDS011;8539;53.188;8.696;2023-08-07T13:38:21;10.50;;;4.07;;
16845;SDS011;8539;53.188;8.696;2023-08-07T13:40:47;5.93;;;2.35;;
16845;SDS011;8539;53.188;8.696;2023-08-07T13:43:13;5.57;;;2.80;;
16845;SDS011;8539;53.188;8.696;2023-08-07T13:45:42;8.43;;;2.97;;
16845;SDS011;8539;53.188;8.696;2023-08-07T13:48:09;7.30;;;2.60;;
16845;SDS011;8539;53.188;8.696;2023-08-07T13:50:38;8.98;;;2.90;;
16845;SDS011;8539;53.188;8.696;2023-08-07T13:53:07;7.03;;;2.95;;
16845;SDS011;8539;53.188;8.696;2023-08-07T13:55:33;7.47;;;3.00;;
16845;SDS011;8539;53.188;8.696;2023-08-07T13:58:02;11.27;;;3.10;;
16845;SDS011;8539;53.188;8.696;2023-08-07T14:00:31;6.07;;;2.70;;
16845;SDS011;8539;53.188;8.696;2023-08-07T14:03:00;10.30;;;3.65;;
16845;SDS011;8539;53.188;8.696;2023-08-07T14:05:26;7.90;;;2.47;;
16845;SDS011;8539;53.188;8.696;2023-08-07T14:07:52;6.07;;;2.47;;
16845;SDS011;8539;53.188;8.696;2023-08-07T14:10:18;9.07;;;2.60;;
16845;SDS011;8539;53.188;8.696;2023-08-07T14:12:47;11.75;;;2.53;;
16845;SDS011;8539;53.188;8.696;2023-08-07T14:15:14;5.78;;;2.30;;
16845;SDS011;8539;53.188;8.696;2023-08-07T14:17:40;5.95;;;2.45;;
16845;SDS011;8539;53.188;8.696;2023-08-07T14:20:09;8.68;;;2.80;;
16845;SDS011;8539;53.188;8.696;2023-08-07T14:22:36;8.35;;;2.72;;
16845;SDS011;8539;53.188;8.696;2023-08-07T14:25:04;7.30;;;2.00;;
16845;SDS011;8539;53.188;8.696;2023-08-07T14:27:31;7.22;;;2.15;;
16845;SDS011;8539;53.188;8.696;2023-08-07T14:29:57;3.67;;;1.73;;
16845;SDS011;8539;53.188;8.696;2023-08-07T14:34:56;8.88;;;2.30;;
16845;SDS011;8539;53.188;8.696;2023-08-07T14:37:22;6.60;;;2.55;;
16845;SDS011;8539;53.188;8.696;2023-08-07T14:39:49;7.05;;;2.33;;
16845;SDS011;8539;53.188;8.696;2023-08-07T14:42:18;4.30;;;2.55;;
16845;SDS011;8539;53.188;8.696;2023-08-07T14:44:44;5.88;;;2.85;;
16845;SDS011;8539;53.188;8.696;2023-08-07T14:47:10;4.90;;;1.98;;
16845;SDS011;8539;53.188;8.696;2023-08-07T14:49:36;4.43;;;2.15;;
16845;SDS011;8539;53.188;8.696;2023-08-07T14:52:08;7.43;;;2.53;;
16845;SDS011;8539;53.188;8.696;2023-08-07T14:54:35;8.25;;;2.10;;
16845;SDS011;8539;53.188;8.696;2023-08-07T14:57:10;8.73;;;2.95;;
16845;SDS011;8539;53.188;8.696;2023-08-07T14:59:36;5.47;;;2.67;;
16845;SDS011;8539;53.188;8.696;2023-08-07T15:02:02;7.85;;;2.45;;
16845;SDS011;8539;53.188;8.696;2023-08-07T15:04:29;5.07;;;1.88;;
16845;SDS011;8539;53.188;8.696;2023-08-07T15:06:58;6.20;;;2.30;;
16845;SDS011;8539;53.188;8.696;2023-08-07T15:09:27;11.20;;;2.65;;
16845;SDS011;8539;53.188;8.696;2023-08-07T15:11:53;10.23;;;2.95;;
16845;SDS011;8539;53.188;8.696;2023-08-07T15:14:19;5.43;;;2.33;;
16845;SDS011;8539;53.188;8.696;2023-08-07T15:16:45;5.47;;;2.30;;
16845;SDS011;8539;53.188;8.696;2023-08-07T15:19:12;4.45;;;1.90;;
16845;SDS011;8539;53.188;8.696;2023-08-07T15:21:38;5.93;;;2.20;;